ポンタ・デルガダ の空港の天気 - METARとTAF

ポンタ・デルガダ空港 ( LPPD / PDL ) - ポルトガル ポンタ・デルガダ (サンミゲル島)
飛行場実況気象(Metar)
観測時間01/20 16:30 AZOT (01/20 17:30 UTC)
風向・風速西北西 4m/s
視程10km以上
天気現象
少しの雲 雲底高度 550m
気温16℃
湿度88%
気圧1022hPa
METARLPPD 201730Z 29008KT 9999 FEW018 16/14 Q1022
過去の天気等 Google飛行場航空写真 Wunderground天気予報

過去48時間のMETAR

飛行場予報(TAF)
発表時間: 1/20 16:00 AZOT (1/20 17:00 UTC)
予報対象時間: 20日17時 AZOT ~ 21日17時 AZOT
風向・風速西北西 5m/s
視程10km以上
全天の4割程度の雲 雲底高度 460m
全天の8割程度の雲 雲底高度 910m
20日17時 AZOT ~ 21日5時 AZOT に 確率 40% で一時的に
視程5,000m
天気現象弱い雨霧雨 もや
全天の4割程度の雲 雲底高度 180m
全天の8割程度の雲 雲底高度 300m
TAF LPPD 201700Z 2018/2118 29010KT 9999 SCT015 BKN030
PROB40 TEMPO 2018/2106 5000 -RADZ BR SCT006 BKN010